VK2HIM Weather Reports


time (UTC)temp
C
wind
direction
speed
KPH
gust
KPH
rain 1hr
cm
rain 24hr
cm
rain mn
cm
humidity
%
barometer
mb
20190423055619 22 185 0.0 0.0 0.00 0.03 0.03 85 1025.3
20190423053620 22 184 0.0 0.0 0.00 0.03 0.03 83 1025.3
20190423051616 22 207 1.6 4.8 0.00 0.03 0.03 84 1025.3
20190423045620 22 197 0.0 0.0 0.00 0.03 0.03 83 1025.3
20190423043620 22 118 0.0 3.2 0.00 0.03 0.03 82 1025.3
20190423041617 22 147 0.0 8.0 0.00 0.03 0.03 84 1025.3
20190423035618 22 147 0.0 0.0 0.00 0.03 0.03 81 1025.2
20190423033616 23 111 0.0 0.0 0.00 0.03 0.03 80 1025.3
20190423032513 23 259 0.0 4.8 0.00 0.03 0.03 81 1025.4
20190423030514 23 84 0.0 0.0 0.00 0.03 0.03 83 1025.6
20190423024512 22 111 0.0 0.0 0.00 0.03 0.03 81 1025.8
20190423022514 22 95 1.6 1.6 0.00 0.03 0.03 78 1026.0
20190423020516 23 89 0.0 0.0 0.00 0.03 0.03 77 1026.3
20190423014513 23 119 0.0 0.0 0.00 0.03 0.03 78 1026.6
20190423012515 24 95 1.6 9.7 0.00 0.03 0.03 76 1026.9
20190423010516 23 84 0.0 0.0 0.00 0.03 0.03 77 1027.2
20190423004516 24 230 0.0 0.0 0.00 0.03 0.03 75 1027.3
20190423002512 23 232 0.0 0.0 0.00 0.03 0.03 80 1027.5
20190423000512 22 240 0.0 0.0 0.00 0.03 0.03 84 1027.6
20190422234514 21 237 0.0 0.0 0.00 0.03 0.03 85 1027.6
20190422232516 20 237 0.0 0.0 0.00 0.03 0.03 87 1027.7
20190422230513 20 239 3.2 4.8 0.00 0.03 0.03 85 1027.9
20190422224515 20 237 0.0 0.0 0.00 0.03 0.03 86 1027.9
20190422222515 20 242 4.8 9.7 0.00 0.03 0.03 89 1027.8
20190422220516 19 236 0.0 0.0 0.00 0.03 0.03 91 1027.6
20190422214515 18 238 0.0 11.3 0.00 0.03 0.03 94 1027.3
20190422212516 18 240 0.0 0.0 0.00 0.03 0.03 96 1027.2
20190422210516 17 244 0.0 0.0 0.00 0.03 0.03 96 1027.0
20190422204514 17 244 0.0 0.0 0.00 0.03 0.03 95 1026.9
20190422202513 17 244 0.0 0.0 0.00 0.03 0.03 95 1026.8
20190422200514 17 244 0.0 0.0 0.00 0.03 0.03 95 1026.7
20190422194514 17 244 0.0 0.0 0.00 0.03 0.03 95 1026.5
20190422192515 17 244 0.0 0.0 0.00 0.03 0.03 95 1026.6
20190422190515 17 244 0.0 0.0 0.00 0.03 0.03 95 1026.8
20190422184516 17 244 0.0 0.0 0.00 0.03 0.03 95 1026.7
20190422182512 17 245 0.0 0.0 0.00 0.03 0.03 95 1026.5
20190422180515 17 245 0.0 0.0 0.00 0.03 0.03 95 1026.3
20190422174517 17 246 0.0 0.0 0.00 0.03 0.03 95 1026.1
20190422172514 17 246 0.0 1.6 0.03 0.03 0.03 95 1026.1
20190422170516 17 236 0.0 4.8 0.03 0.03 0.03 95 1026.2
20190422164513 17 234 0.0 0.0 0.03 0.03 0.03 95 1026.1
20190422162515 18 234 0.0 0.0 0.00 0.00 0.00 95 1026.4
20190422160516 18 234 0.0 0.0 0.00 0.00 0.00 95 1026.5
20190422154513 18 235 0.0 0.0 0.00 0.00 0.00 95 1026.4
20190422152514 18 236 0.0 0.0 0.00 0.00 0.00 95 1026.3
20190422150516 18 237 3.2 8.0 0.00 0.00 0.00 95 1026.4
20190422144514 18 236 3.2 9.7 0.00 0.00 0.00 96 1026.3
20190422142516 18 266 0.0 0.0 0.00 0.00 0.00 95 1026.3
20190422140513 18 270 0.0 0.0 0.00 0.00 0.00 95 1026.2
20190422134515 18 270 0.0 0.0 0.00 0.00 0.00 95 1026.1
20190422132516 18 270 0.0 0.0 0.00 0.00 0.00 94 1026.0
20190422130517 18 270 0.0 0.0 0.00 0.00 0.00 94 1026.0
20190422124514 18 270 0.0 0.0 0.00 0.00 0.00 94 1026.2
20190422122515 18 270 0.0 0.0 0.00 0.00 0.00 94 1026.2
20190422120516 18 270 0.0 0.0 0.00 0.00 0.00 93 1026.2
20190422114517 19 276 0.0 0.0 0.00 0.00 0.00 94 1026.0
20190422112515 19 276 0.0 0.0 0.00 0.00 0.00 94 1025.9
20190422110514 19 276 0.0 0.0 0.00 0.00 0.00 93 1025.6
20190422104516 19 298 0.0 0.0 0.00 0.00 0.00 92 1025.4
20190422102517 19 298 0.0 0.0 0.00 0.00 0.00 92 1025.3
20190422100516 19 298 0.0 0.0 0.00 0.00 0.00 91 1025.2
20190422094517 20 298 0.0 0.0 0.00 0.00 0.00 89 1024.9
20190422092515 20 316 0.0 0.0 0.00 0.00 0.00 88 1024.6
20190422090516 20 316 0.0 0.0 0.00 0.00 0.00 86 1024.3
20190422084518 20 320 0.0 0.0 0.00 0.00 0.00 85 1024.1
20190422082517 20 320 0.0 0.0 0.00 0.00 0.00 83 1023.8
20190422080518 21 320 0.0 0.0 0.00 0.00 0.00 83 1023.4
20190422074516 21 352 0.0 0.0 0.00 0.00 0.00 82 1023.0
20190422072516 21 9 0.0 3.2 0.00 0.00 0.00 80 1022.6
20190422070514 22 24 1.6 0.0 0.00 0.00 0.00 78 1022.2
20190422064515 22 22 9.7 19.3 0.00 0.00 0.00 76 1021.9
20190422062517 22 19 3.2 9.7 0.00 0.00 0.00 76 1021.6
20190422060514 23 29 3.2 11.3 0.00 0.00 0.00 74 1021.4